Airfield :
LOGIN :

Register | Disclaimer

   EN    FR    IT 

 










Legend :    VFR   Marginal VFR   IFR   Intensive IFR   Very Intensive IFR
Visi :
Ceiling :
>= 8 km
>= 3000ft
5 to 8 km
1000 to 3000 ft
1500m to 5 km
500 to 1000 ft
800 to 1500m
200 to 500 ft
< 800m
< 200 ft
Symbols :   Thunderstorms  Fog  Heavy snow  Heavy precipitations  Wind > 20 kt
SIGMETs :     Misc.  Thunderstorms  Icing  Turbulence  Mountain Waves  Volcanic Ashes







- Airport Elevation : 13 ft
- IATA code : SNR
- Download approach charts


LFRZ - St-Nazaire

CURRENT METAR :
  • 141430Z AUTO 27018KT 9999 FEW023 SCT028 BKN034 09/06 Q1001 TEMPO VRB30G50KT 2000 TSRA BKN015CB

EXPIRED METARs :
  • 141400Z AUTO 26015KT 230V290 9999 BKN029/// BKN040/// BKN056/// ///TCU 10/07 Q1001 TEMPO VRB30G50KT 2000 TSRA BKN015CB
  • 141330Z AUTO 26017KT 230V290 9999 FEW024/// BKN043/// BKN060/// ///TCU 10/07 Q1002 TEMPO VRB30G50KT 2000 TSRA BKN015CB
  • 141300Z AUTO 26014KT 9999 FEW019/// BKN040/// BKN049/// ///TCU 09/06 Q1002 TEMPO VRB30G50KT 2000 TSRA BKN015CB
  • 141230Z AUTO 26015KT 240V300 9999 SCT031/// BKN038/// BKN048/// ///CB 11/07 Q1003 TEMPO VRB30G50KT 2000 TSRA
  • 141200Z AUTO 27015KT 9999 -RA FEW025/// BKN036/// BKN048/// ///CB 09/06 Q1004 TEMPO VRB30G50KT 2000 TSRA

TAF AMD TAF LFRZ
Valid from the 14 at 14:00 until the 15 at 12:00 UTC


141443Z 1414/1512 26015G25KT 9999 BKN040
TEMPO 1414/1424 24020G40KT 3000 SHRA BKN020CB
PROB40
TEMPO 1415/1417 VRB30G50KT 2000 TSRA BKN015CB
BECMG 1502/1505 25010KT
BECMG 1505/1508 30015G25KT
PROB30
TEMPO 1500/1507 -SHRA BKN030TCU
BECMG 1507/1510 30015G25KT
TEMPO 1507/1509 4000 SHRA SCT012 BKN020CB
PROB30
TEMPO 1509/1512 -SHRA BKN030TCU
No reported NOTAMs for that airfield.
3 SIGMETs reported for the Brest FIR (LFRR) :
 
Severe turbulence
LFRR SIGMET 12 VALID 141400/141700 LFPW
LFRR BREST FIR/UIR SEV TURB FCST WI N4500 W00730 - N4500 W00800 - N4900 W00800 - N5000 W00200 - N5000 W00145 - N4830 W00115 - N4830 W00345 - N4630 W00100 - N4630 W00130 - N4545 W00145 - N4500 W00730 SFC/FL050 MOV S 30KT NC=
Embedded thunderstorms
LFRR SIGMET 11 VALID 141330/141530 LFPW
LFRR BREST FIR/UIR EMBD TS FCST WI N4845 W00800 - N4900 W00800 - N5000 W00200 - N5000 W00015 - N4900 W00015 - N4730 W00545 - N4845 W00800 TOP FL290 MOV E 30KT NC=
Severe turbulence
LFRR SIGMET 10 VALID 141300/141700 LFPW
LFRR BREST FIR/UIR SEV TURB FCST WI N4800 W00800 - N4900 W00800 - N4900 W00745 - N4830 W00530 - N4730 W00545 - N4800 W00800 FL150/250 MOV SE 50KT NC=



MET'MAP, your aeronautical weather chart ! - Copyright ORBIFLY December 2007 - Disclaimer

ORBIFLY MET'MAP TEAM :

Programming & Development : Alexandra Zaïnal
Concept & Development : Baudouin d'Aumeries
Co-Development & Prog : Marc-Olivier Méhu
Technical & hardware support : Manuel Goepfert

Contact : metmap@orbifly.com




SOURCES & CREDITS :

   NOAA